Time;durP1;ratioP1;P1;durP2;ratioP2;P2;SDS_P1;SDS_P2;PMS_P1;PMS_P2;Temp;Humidity;BMP_temperature;BMP_pressure;BME280_temperature;BME280_humidity;BME280_pressure;Samples;Min_cycle;Max_cycle;Signal;HPM_P1;HPM_P2
2024/04/17 00:02:15;;;;;;;57.57;3.60;;;;;;;;;;5351311;26;20479;-68
2024/04/17 00:04:44;;;;;;;56.40;3.03;;;;;;;;;;5350959;26;20472;-68
2024/04/17 00:07:10;;;;;;;55.87;2.87;;;;;;;;;;5350351;26;20543;-67
2024/04/17 00:09:39;;;;;;;56.40;3.10;;;;;;;;;;5351007;26;20484;-68
2024/04/17 00:12:05;;;;;;;55.97;3.13;;;;;;;;;;5348363;26;20487;-67
2024/04/17 00:14:34;;;;;;;56.27;3.00;;;;;;;;;;5349912;26;21114;-67
2024/04/17 00:17:00;;;;;;;56.37;2.83;;;;;;;;;;5349853;26;20479;-68
2024/04/17 00:19:32;;;;;;;55.97;2.90;;;;;;;;;;5349832;26;20483;-68
2024/04/17 00:21:58;;;;;;;55.83;2.63;;;;;;;;;;5349546;26;20487;-67
2024/04/17 00:24:27;;;;;;;55.90;2.60;;;;;;;;;;5349617;26;20763;-67
2024/04/17 00:26:53;;;;;;;56.20;3.00;;;;;;;;;;5348314;26;20484;-68
2024/04/17 00:29:21;;;;;;;56.00;2.80;;;;;;;;;;5349252;26;20532;-67
2024/04/17 00:31:47;;;;;;;56.00;2.97;;;;;;;;;;5348213;26;20583;-68
2024/04/17 00:34:16;;;;;;;56.40;3.53;;;;;;;;;;5349641;26;20480;-68
2024/04/17 00:36:45;;;;;;;56.17;3.00;;;;;;;;;;5349478;26;20572;-68
2024/04/17 00:39:14;;;;;;;56.60;3.10;;;;;;;;;;5349010;26;20476;-67
2024/04/17 00:41:40;;;;;;;56.20;2.93;;;;;;;;;;5348519;26;20483;-68
2024/04/17 00:44:09;;;;;;;57.40;3.20;;;;;;;;;;5348435;26;21158;-68
2024/04/17 00:46:37;;;;;;;55.87;2.47;;;;;;;;;;5348084;26;20479;-68
2024/04/17 00:49:06;;;;;;;56.77;3.57;;;;;;;;;;5348796;26;20483;-68
2024/04/17 00:51:32;;;;;;;57.23;3.40;;;;;;;;;;5348292;26;20527;-68
2024/04/17 00:54:04;;;;;;;56.10;3.20;;;;;;;;;;5348514;26;20794;-68
2024/04/17 00:56:30;;;;;;;58.10;3.40;;;;;;;;;;5348269;26;20531;-68
2024/04/17 00:59:00;;;;;;;56.23;3.20;;;;;;;;;;5348440;26;20487;-68
2024/04/17 01:01:26;;;;;;;56.47;3.30;;;;;;;;;;5348592;26;20472;-67
2024/04/17 01:03:55;;;;;;;56.27;3.20;;;;;;;;;;5347923;26;20576;-68
2024/04/17 01:06:21;;;;;;;60.80;3.53;;;;;;;;;;5348918;26;20484;-68
2024/04/17 01:08:49;;;;;;;56.90;3.40;;;;;;;;;;5352588;26;20479;-67
2024/04/17 01:11:18;;;;;;;58.07;3.83;;;;;;;;;;5355217;26;20520;-67
2024/04/17 01:13:47;;;;;;;56.37;3.53;;;;;;;;;;5355831;26;21066;-67
2024/04/17 01:16:13;;;;;;;57.17;3.40;;;;;;;;;;5356224;26;20487;-67
2024/04/17 01:18:43;;;;;;;56.70;3.50;;;;;;;;;;5357919;26;20531;-67
2024/04/17 01:21:09;;;;;;;56.60;3.30;;;;;;;;;;5357772;26;20559;-67
2024/04/17 01:23:38;;;;;;;56.77;3.87;;;;;;;;;;5357351;26;20531;-67
2024/04/17 01:26:07;;;;;;;56.67;4.07;;;;;;;;;;5357828;26;20480;-67
2024/04/17 01:28:35;;;;;;;57.47;4.17;;;;;;;;;;5358664;26;20475;-67
2024/04/17 01:31:01;;;;;;;56.50;3.53;;;;;;;;;;5358600;26;20479;-67
2024/04/17 01:33:30;;;;;;;57.37;3.80;;;;;;;;;;5358749;26;20472;-67
2024/04/17 01:35:56;;;;;;;57.20;3.83;;;;;;;;;;5358052;26;20480;-67
2024/04/17 01:38:25;;;;;;;57.20;3.93;;;;;;;;;;5358239;26;20476;-67
2024/04/17 01:40:51;;;;;;;56.67;3.37;;;;;;;;;;5358199;26;20483;-68
2024/04/17 01:43:24;;;;;;;58.10;4.27;;;;;;;;;;5359027;26;20530;-68
2024/04/17 01:45:50;;;;;;;57.37;4.53;;;;;;;;;;5358013;26;20467;-67
2024/04/17 01:48:19;;;;;;;57.00;3.90;;;;;;;;;;5359148;26;20491;-67
2024/04/17 01:50:45;;;;;;;56.67;3.77;;;;;;;;;;5358838;26;20849;-67
2024/04/17 01:53:14;;;;;;;57.07;4.07;;;;;;;;;;5358726;26;20487;-68
2024/04/17 01:55:40;;;;;;;56.80;4.00;;;;;;;;;;5358323;26;20475;-68
2024/04/17 01:58:09;;;;;;;56.40;3.80;;;;;;;;;;5358347;26;20476;-67
2024/04/17 02:00:38;;;;;;;57.10;3.80;;;;;;;;;;5358812;26;20479;-68
2024/04/17 02:03:09;;;;;;;57.60;3.80;;;;;;;;;;5358493;26;20562;-67
2024/04/17 02:05:37;;;;;;;56.67;3.70;;;;;;;;;;5358844;26;20476;-68
2024/04/17 02:08:04;;;;;;;58.80;4.07;;;;;;;;;;5357718;26;20581;-67
2024/04/17 02:10:33;;;;;;;57.17;4.70;;;;;;;;;;5357420;26;20577;-67
2024/04/17 02:12:59;;;;;;;57.67;4.60;;;;;;;;;;5356625;26;20479;-67
2024/04/17 02:15:27;;;;;;;57.90;4.87;;;;;;;;;;5358359;26;20484;-67
2024/04/17 02:17:56;;;;;;;59.60;4.50;;;;;;;;;;5357590;26;20468;-68
2024/04/17 02:20:25;;;;;;;57.97;5.37;;;;;;;;;;5357705;26;20540;-67
2024/04/17 02:22:51;;;;;;;57.80;5.10;;;;;;;;;;5358211;26;20766;-67
2024/04/17 02:25:20;;;;;;;57.20;4.57;;;;;;;;;;5356900;26;20532;-67
2024/04/17 02:27:46;;;;;;;57.77;4.33;;;;;;;;;;5357030;26;20530;-67
2024/04/17 02:30:15;;;;;;;57.50;5.00;;;;;;;;;;5357452;26;20547;-67
2024/04/17 02:32:41;;;;;;;58.80;4.90;;;;;;;;;;5355313;26;20472;-67
2024/04/17 02:35:13;;;;;;;57.27;5.43;;;;;;;;;;5354554;26;20476;-67
2024/04/17 02:37:39;;;;;;;57.77;5.07;;;;;;;;;;5355146;26;20468;-67
2024/04/17 02:40:08;;;;;;;58.17;5.30;;;;;;;;;;5355441;26;20535;-68
2024/04/17 02:42:34;;;;;;;60.07;5.53;;;;;;;;;;5355544;26;20476;-68
2024/04/17 02:45:03;;;;;;;57.90;5.10;;;;;;;;;;5354580;26;21076;-68
2024/04/17 02:47:29;;;;;;;57.67;5.60;;;;;;;;;;5353727;26;20839;-68
2024/04/17 02:49:58;;;;;;;58.97;5.93;;;;;;;;;;5354476;26;20522;-67
2024/04/17 02:52:27;;;;;;;59.30;5.87;;;;;;;;;;5353640;26;20593;-68
2024/04/17 02:54:56;;;;;;;57.80;4.90;;;;;;;;;;5353365;26;20543;-68
2024/04/17 02:57:22;;;;;;;57.40;4.40;;;;;;;;;;5353035;26;20523;-67
2024/04/17 02:59:50;;;;;;;57.17;4.03;;;;;;;;;;5352867;26;20543;-68
2024/04/17 03:02:17;;;;;;;57.00;3.70;;;;;;;;;;5352067;26;20923;-67
2024/04/17 03:04:45;;;;;;;60.47;4.20;;;;;;;;;;5352168;26;20524;-68
2024/04/17 03:07:11;;;;;;;56.60;3.60;;;;;;;;;;5352060;26;20547;-67
2024/04/17 03:09:43;;;;;;;56.60;3.43;;;;;;;;;;5353011;26;20484;-68
2024/04/17 03:12:09;;;;;;;56.57;3.50;;;;;;;;;;5352563;26;20505;-67
2024/04/17 03:14:38;;;;;;;56.80;4.10;;;;;;;;;;5352760;26;20468;-67
2024/04/17 03:17:04;;;;;;;56.50;3.80;;;;;;;;;;5351760;26;20484;-67
2024/04/17 03:19:33;;;;;;;56.50;3.83;;;;;;;;;;5352285;26;20805;-67
2024/04/17 03:21:59;;;;;;;57.03;3.87;;;;;;;;;;5353881;26;20471;-68
2024/04/17 03:24:28;;;;;;;56.90;4.80;;;;;;;;;;5352746;26;20468;-67
2024/04/17 03:26:57;;;;;;;56.80;4.00;;;;;;;;;;5353226;26;20603;-67
2024/04/17 03:29:25;;;;;;;57.93;4.83;;;;;;;;;;5352895;26;20544;-68
2024/04/17 03:31:52;;;;;;;57.60;3.93;;;;;;;;;;5353589;26;20590;-68
2024/04/17 03:34:20;;;;;;;57.20;4.33;;;;;;;;;;5354553;26;20472;-68
2024/04/17 03:36:49;;;;;;;57.77;4.60;;;;;;;;;;5353822;26;20883;-68
2024/04/17 03:39:18;;;;;;;57.60;4.70;;;;;;;;;;5353789;26;20491;-68
2024/04/17 03:41:48;;;;;;;57.37;4.20;;;;;;;;;;5353385;26;20862;-68
2024/04/17 03:44:20;;;;;;;59.43;5.40;;;;;;;;;;5354653;26;20479;-68
2024/04/17 03:46:48;;;;;;;60.23;4.50;;;;;;;;;;5354550;26;20488;-68
2024/04/17 03:49:18;;;;;;;58.20;4.70;;;;;;;;;;5355029;26;20603;-68
2024/04/17 03:51:44;;;;;;;58.27;4.83;;;;;;;;;;5353940;26;20511;-68
2024/04/17 03:54:13;;;;;;;57.67;4.83;;;;;;;;;;5353674;26;20820;-69
2024/04/17 03:56:39;;;;;;;57.37;4.40;;;;;;;;;;5353667;26;20495;-69
2024/04/17 03:59:08;;;;;;;59.33;5.07;;;;;;;;;;5355121;26;20524;-68
2024/04/17 04:01:36;;;;;;;59.87;5.43;;;;;;;;;;5340678;26;20534;-68
2024/04/17 04:04:05;;;;;;;59.63;6.17;;;;;;;;;;5354048;26;20593;-68
2024/04/17 04:06:31;;;;;;;58.90;6.00;;;;;;;;;;5354365;26;20524;-68
2024/04/17 04:09:00;;;;;;;58.83;6.13;;;;;;;;;;5354497;26;20699;-69
2024/04/17 04:11:26;;;;;;;59.30;6.47;;;;;;;;;;5353800;26;20468;-69
2024/04/17 04:13:55;;;;;;;58.50;5.47;;;;;;;;;;5354936;26;20837;-69
2024/04/17 04:16:21;;;;;;;60.13;6.23;;;;;;;;;;5353617;26;20528;-68
2024/04/17 04:18:52;;;;;;;58.30;5.33;;;;;;;;;;5355536;26;21025;-68
2024/04/17 04:21:19;;;;;;;59.57;6.03;;;;;;;;;;5354903;26;20860;-68
2024/04/17 04:23:49;;;;;;;58.40;5.23;;;;;;;;;;5355433;26;20479;-68
2024/04/17 04:26:16;;;;;;;59.27;6.67;;;;;;;;;;5355035;26;20563;-68
2024/04/17 04:28:44;;;;;;;58.73;5.47;;;;;;;;;;5355387;26;20484;-68
2024/04/17 04:31:11;;;;;;;59.70;5.80;;;;;;;;;;5355369;26;20491;-69
2024/04/17 04:33:39;;;;;;;59.77;5.30;;;;;;;;;;5353199;26;20480;-68
2024/04/17 04:36:08;;;;;;;58.37;5.63;;;;;;;;;;5353054;26;20630;-68
2024/04/17 04:38:37;;;;;;;59.00;6.07;;;;;;;;;;5353296;26;20475;-68
2024/04/17 04:41:03;;;;;;;58.90;5.43;;;;;;;;;;5355088;26;20532;-69
2024/04/17 04:43:32;;;;;;;59.17;5.87;;;;;;;;;;5353922;26;20475;-67
2024/04/17 04:45:58;;;;;;;58.73;5.30;;;;;;;;;;5355025;26;20568;-68
2024/04/17 04:48:27;;;;;;;58.87;6.37;;;;;;;;;;5350664;26;20601;-68
2024/04/17 04:50:53;;;;;;;59.13;6.40;;;;;;;;;;5355269;26;20614;-68
2024/04/17 04:53:25;;;;;;;59.30;6.10;;;;;;;;;;5355390;26;20526;-68
2024/04/17 04:55:57;;;;;;;59.00;5.60;;;;;;;;;;5355113;26;20479;-67
2024/04/17 04:58:26;;;;;;;58.23;5.93;;;;;;;;;;5354809;26;20532;-67
2024/04/17 05:00:52;;;;;;;58.90;5.93;;;;;;;;;;5354487;26;20886;-67
2024/04/17 05:03:21;;;;;;;60.67;6.90;;;;;;;;;;5355205;26;20573;-68
2024/04/17 05:05:47;;;;;;;59.70;6.70;;;;;;;;;;5354735;26;20472;-68
2024/04/17 05:08:16;;;;;;;58.97;5.57;;;;;;;;;;5355172;26;20476;-67
2024/04/17 05:10:45;;;;;;;58.90;5.80;;;;;;;;;;5355217;26;20496;-68
2024/04/17 05:13:14;;;;;;;59.30;5.67;;;;;;;;;;5354764;26;20476;-67
2024/04/17 05:15:40;;;;;;;58.90;6.13;;;;;;;;;;5354778;26;20476;-68
2024/04/17 05:18:09;;;;;;;58.87;5.90;;;;;;;;;;5355014;26;20479;-68
2024/04/17 05:20:35;;;;;;;58.73;5.30;;;;;;;;;;5355058;26;20867;-68
2024/04/17 05:23:04;;;;;;;61.20;6.67;;;;;;;;;;5355136;26;20479;-67
2024/04/17 05:25:30;;;;;;;60.43;7.57;;;;;;;;;;5354259;26;20464;-67
2024/04/17 05:28:01;;;;;;;60.63;7.00;;;;;;;;;;5355280;26;20468;-68
2024/04/17 05:30:27;;;;;;;60.63;6.30;;;;;;;;;;5355110;26;20476;-67
2024/04/17 05:32:56;;;;;;;60.80;7.50;;;;;;;;;;5356084;26;20547;-68
2024/04/17 05:35:22;;;;;;;60.87;7.67;;;;;;;;;;5355173;26;20531;-67
2024/04/17 05:37:51;;;;;;;62.00;7.80;;;;;;;;;;5354980;26;20559;-67
2024/04/17 05:40:17;;;;;;;61.70;8.30;;;;;;;;;;5354646;26;20665;-67
2024/04/17 05:42:46;;;;;;;60.80;6.47;;;;;;;;;;5355760;26;20548;-68
2024/04/17 05:45:15;;;;;;;60.37;7.30;;;;;;;;;;5355637;26;20487;-67
2024/04/17 05:47:44;;;;;;;60.77;6.67;;;;;;;;;;5353714;26;20487;-67
2024/04/17 05:50:10;;;;;;;60.40;7.10;;;;;;;;;;5351984;26;21239;-67
2024/04/17 05:52:38;;;;;;;59.57;6.70;;;;;;;;;;5352134;26;21030;-67
2024/04/17 05:55:07;;;;;;;59.87;6.77;;;;;;;;;;5351722;26;20487;-66
2024/04/17 05:57:33;;;;;;;59.80;6.10;;;;;;;;;;5354991;26;20595;-67
2024/04/17 06:00:03;;;;;;;61.17;7.50;;;;;;;;;;5353881;26;20479;-67
2024/04/17 06:02:31;;;;;;;61.83;7.23;;;;;;;;;;5354816;26;20528;-67
2024/04/17 06:05:00;;;;;;;60.23;6.40;;;;;;;;;;5353554;26;20559;-67
2024/04/17 06:07:26;;;;;;;60.60;7.67;;;;;;;;;;5352848;26;20475;-67
2024/04/17 06:09:55;;;;;;;60.57;8.00;;;;;;;;;;5352014;26;20476;-67
2024/04/17 06:12:21;;;;;;;59.40;6.90;;;;;;;;;;5352461;26;20471;-67
2024/04/17 06:14:50;;;;;;;61.60;7.87;;;;;;;;;;5353430;26;20895;-67
2024/04/17 06:17:16;;;;;;;60.23;7.10;;;;;;;;;;5352076;26;20583;-67
2024/04/17 06:19:48;;;;;;;63.13;8.03;;;;;;;;;;5352697;26;20475;-68
2024/04/17 06:22:15;;;;;;;61.17;7.67;;;;;;;;;;5353278;26;20526;-68
2024/04/17 06:24:43;;;;;;;62.97;8.77;;;;;;;;;;5354695;26;20479;-68
2024/04/17 06:27:10;;;;;;;63.80;6.73;;;;;;;;;;5354717;26;20604;-68
2024/04/17 06:29:38;;;;;;;61.70;8.30;;;;;;;;;;5354862;26;20562;-69
2024/04/17 06:32:05;;;;;;;61.07;7.43;;;;;;;;;;5354719;26;20463;-68
2024/04/17 06:34:34;;;;;;;60.07;7.30;;;;;;;;;;5351824;26;20547;-67
2024/04/17 06:37:03;;;;;;;61.37;7.00;;;;;;;;;;5351206;26;20519;-68
2024/04/17 06:39:33;;;;;;;60.47;7.50;;;;;;;;;;5350663;26;20528;-68
2024/04/17 06:41:59;;;;;;;61.53;7.63;;;;;;;;;;5351511;26;20472;-67
2024/04/17 06:44:28;;;;;;;60.00;7.80;;;;;;;;;;5350561;26;20650;-68
2024/04/17 06:46:54;;;;;;;61.20;7.87;;;;;;;;;;5351193;26;20679;-68
2024/04/17 06:49:25;;;;;;;60.00;7.07;;;;;;;;;;5351918;26;20475;-68
2024/04/17 06:51:51;;;;;;;60.33;7.53;;;;;;;;;;5350939;26;20522;-68
2024/04/17 06:54:22;;;;;;;60.20;7.30;;;;;;;;;;5350813;26;20578;-67
2024/04/17 06:56:48;;;;;;;64.93;7.83;;;;;;;;;;5348809;26;20591;-68
2024/04/17 06:59:17;;;;;;;59.97;6.73;;;;;;;;;;5350716;26;20527;-68
2024/04/17 07:01:43;;;;;;;59.13;6.23;;;;;;;;;;5349751;26;21034;-69
2024/04/17 07:04:12;;;;;;;59.97;5.97;;;;;;;;;;5350082;26;20479;-68
2024/04/17 07:06:41;;;;;;;60.47;6.70;;;;;;;;;;5350127;26;20536;-68
2024/04/17 07:09:07;;;;;;;59.40;6.47;;;;;;;;;;5350945;26;21030;-68
2024/04/17 07:11:39;;;;;;;59.50;6.00;;;;;;;;;;5351940;26;20857;-69
2024/04/17 07:14:05;;;;;;;60.70;7.07;;;;;;;;;;5353015;26;20471;-68
2024/04/17 07:16:33;;;;;;;60.17;6.80;;;;;;;;;;5351234;26;20487;-68
2024/04/17 07:19:00;;;;;;;60.93;7.40;;;;;;;;;;5352094;26;20476;-68
2024/04/17 07:21:28;;;;;;;60.10;7.00;;;;;;;;;;5352211;26;20475;-68
2024/04/17 07:23:56;;;;;;;61.00;7.73;;;;;;;;;;5353750;26;20483;-68
2024/04/17 07:26:25;;;;;;;59.60;6.57;;;;;;;;;;5352451;26;20536;-69
2024/04/17 07:28:53;;;;;;;60.87;6.57;;;;;;;;;;5353137;26;20483;-68
2024/04/17 07:31:22;;;;;;;58.83;5.70;;;;;;;;;;5353436;26;20563;-68
2024/04/17 07:33:48;;;;;;;59.30;5.60;;;;;;;;;;5353113;26;20472;-69
2024/04/17 07:36:17;;;;;;;58.70;5.40;;;;;;;;;;5352110;26;20484;-69
2024/04/17 07:38:45;;;;;;;58.90;5.03;;;;;;;;;;5352977;26;20467;-69
2024/04/17 07:41:14;;;;;;;58.43;5.00;;;;;;;;;;5352606;26;20510;-68
2024/04/17 07:43:40;;;;;;;58.23;4.53;;;;;;;;;;5352575;26;20483;-68
2024/04/17 07:46:11;;;;;;;59.00;4.83;;;;;;;;;;5353080;26;20716;-68
2024/04/17 07:48:37;;;;;;;58.17;5.50;;;;;;;;;;5353657;26;20472;-68
2024/04/17 07:51:06;;;;;;;59.23;6.47;;;;;;;;;;5354135;26;20898;-67
2024/04/17 07:53:33;;;;;;;58.30;5.17;;;;;;;;;;5352449;26;20532;-67
2024/04/17 07:56:02;;;;;;;59.47;5.77;;;;;;;;;;5353881;26;20492;-67
2024/04/17 07:58:28;;;;;;;59.77;6.97;;;;;;;;;;5353066;26;20472;-69
2024/04/17 08:00:57;;;;;;;59.57;6.37;;;;;;;;;;5353794;26;20471;-69
2024/04/17 08:03:26;;;;;;;58.17;5.30;;;;;;;;;;5353509;26;20483;-69
2024/04/17 08:05:54;;;;;;;59.00;6.20;;;;;;;;;;5353733;26;20539;-68
2024/04/17 08:08:21;;;;;;;58.80;5.90;;;;;;;;;;5354740;26;20567;-67
2024/04/17 08:10:49;;;;;;;60.27;5.47;;;;;;;;;;5355733;26;20483;-67
2024/04/17 08:13:16;;;;;;;59.63;6.50;;;;;;;;;;5352117;26;20570;-68
2024/04/17 08:15:45;;;;;;;58.60;5.80;;;;;;;;;;5350131;26;20535;-68
2024/04/17 08:18:11;;;;;;;59.10;5.33;;;;;;;;;;5347855;26;20492;-67
2024/04/17 08:20:43;;;;;;;58.80;5.33;;;;;;;;;;5348705;26;20476;-68
2024/04/17 08:23:09;;;;;;;58.20;5.80;;;;;;;;;;5350777;26;20477;-67
2024/04/17 08:25:37;;;;;;;59.47;5.10;;;;;;;;;;5348840;26;20909;-67
2024/04/17 08:28:04;;;;;;;58.20;5.10;;;;;;;;;;5349252;26;20536;-68
2024/04/17 08:30:33;;;;;;;58.07;5.47;;;;;;;;;;5350038;26;20480;-68
2024/04/17 08:32:59;;;;;;;60.37;6.20;;;;;;;;;;5351389;26;20530;-68
2024/04/17 08:35:28;;;;;;;60.13;6.27;;;;;;;;;;5351012;26;20475;-68
2024/04/17 08:37:56;;;;;;;58.30;5.47;;;;;;;;;;5351274;26;20491;-68
2024/04/17 08:40:25;;;;;;;59.03;5.87;;;;;;;;;;5352164;26;21007;-68
2024/04/17 08:42:54;;;;;;;64.43;5.67;;;;;;;;;;5352541;26;20534;-69
2024/04/17 08:45:24;;;;;;;59.77;5.80;;;;;;;;;;5353021;26;20602;-68
2024/04/17 08:47:51;;;;;;;58.87;5.77;;;;;;;;;;5353088;26;20468;-68
2024/04/17 08:50:21;;;;;;;60.00;6.90;;;;;;;;;;5354219;26;20517;-69
2024/04/17 08:52:47;;;;;;;62.27;6.70;;;;;;;;;;5352579;26;20464;-69
2024/04/17 08:55:16;;;;;;;61.70;6.70;;;;;;;;;;5351803;26;20616;-68
2024/04/17 08:57:45;;;;;;;60.10;6.60;;;;;;;;;;5350858;26;20530;-68
2024/04/17 09:00:12;;;;;;;60.60;7.23;;;;;;;;;;5351613;26;21154;-69
2024/04/17 09:02:41;;;;;;;62.80;8.07;;;;;;;;;;5350946;26;21085;-67
2024/04/17 09:05:07;;;;;;;60.70;7.43;;;;;;;;;;5350021;26;20599;-68
2024/04/17 09:07:38;;;;;;;65.10;7.60;;;;;;;;;;5349105;26;20524;-68
2024/04/17 09:10:05;;;;;;;62.60;7.03;;;;;;;;;;5351253;26;20487;-68
2024/04/17 09:12:38;;;;;;;59.77;6.60;;;;;;;;;;5351783;26;20480;-67
2024/04/17 09:15:05;;;;;;;69.17;7.37;;;;;;;;;;5353109;26;20472;-67
2024/04/17 09:17:34;;;;;;;59.20;6.00;;;;;;;;;;5352289;26;20527;-68
2024/04/17 09:20:00;;;;;;;60.07;5.87;;;;;;;;;;5351017;26;20948;-67
2024/04/17 09:22:29;;;;;;;58.93;6.30;;;;;;;;;;5349895;26;21054;-67
2024/04/17 09:24:55;;;;;;;59.67;6.50;;;;;;;;;;5351782;26;20612;-67
2024/04/17 09:27:24;;;;;;;58.90;6.30;;;;;;;;;;5351049;26;20479;-68
2024/04/17 09:29:52;;;;;;;59.50;6.53;;;;;;;;;;5338347;26;20476;-68
2024/04/17 09:32:22;;;;;;;58.70;5.60;;;;;;;;;;5353612;26;20527;-67
2024/04/17 09:34:48;;;;;;;59.80;6.13;;;;;;;;;;5353398;26;20475;-68
2024/04/17 09:37:17;;;;;;;59.17;5.73;;;;;;;;;;5351595;26;20831;-67
2024/04/17 09:39:43;;;;;;;58.50;5.77;;;;;;;;;;5354019;26;20602;-68
2024/04/17 09:42:12;;;;;;;57.80;5.50;;;;;;;;;;5354330;26;20472;-67
2024/04/17 09:44:39;;;;;;;59.27;5.03;;;;;;;;;;5353806;26;20550;-68
2024/04/17 09:47:11;;;;;;;57.80;4.80;;;;;;;;;;5352622;26;20525;-68
2024/04/17 09:49:38;;;;;;;59.50;5.33;;;;;;;;;;5354368;26;20475;-67
2024/04/17 09:52:08;;;;;;;58.67;4.67;;;;;;;;;;5353371;26;20611;-67
2024/04/17 09:54:34;;;;;;;58.30;5.53;;;;;;;;;;5356029;26;20479;-67
2024/04/17 09:57:04;;;;;;;59.70;5.27;;;;;;;;;;5352379;26;20854;-67
2024/04/17 09:59:30;;;;;;;64.43;5.43;;;;;;;;;;5354025;26;20483;-67
2024/04/17 10:01:59;;;;;;;58.10;5.00;;;;;;;;;;5354927;26;21137;-68
2024/04/17 10:04:29;;;;;;;58.30;5.30;;;;;;;;;;5354216;26;20476;-67
2024/04/17 10:06:58;;;;;;;58.60;5.57;;;;;;;;;;5352323;26;20586;-68
2024/04/17 10:09:25;;;;;;;62.27;6.20;;;;;;;;;;5353298;26;20515;-67
2024/04/17 10:11:54;;;;;;;58.87;5.43;;;;;;;;;;5353576;26;20830;-68
2024/04/17 10:14:22;;;;;;;59.47;5.90;;;;;;;;;;5353599;26;20584;-67
2024/04/17 10:16:52;;;;;;;59.77;5.97;;;;;;;;;;5353120;26;20479;-68
2024/04/17 10:19:18;;;;;;;59.40;5.83;;;;;;;;;;5353826;26;20676;-68
2024/04/17 10:21:49;;;;;;;58.63;5.57;;;;;;;;;;5355023;26;20594;-67
2024/04/17 10:24:18;;;;;;;62.67;6.20;;;;;;;;;;5355774;26;20588;-67
2024/04/17 10:26:47;;;;;;;60.50;5.60;;;;;;;;;;5354898;26;20543;-67
2024/04/17 10:29:17;;;;;;;59.30;5.70;;;;;;;;;;5356238;26;20463;-67
2024/04/17 10:31:56;;;;;;;61.37;5.50;;;;;;;;;;5357149;26;20495;-68
2024/04/17 10:34:23;;;;;;;59.40;5.20;;;;;;;;;;5357300;26;20522;-68
2024/04/17 10:36:57;;;;;;;59.20;5.07;;;;;;;;;;5355918;26;20830;-67
2024/04/17 10:39:25;;;;;;;60.60;5.97;;;;;;;;;;5356578;26;20594;-67
2024/04/17 10:41:55;;;;;;;59.47;6.00;;;;;;;;;;5355601;26;20476;-67
2024/04/17 10:44:21;;;;;;;59.97;5.60;;;;;;;;;;5356765;26;20524;-67
2024/04/17 10:46:50;;;;;;;59.97;5.40;;;;;;;;;;5357648;26;20573;-68
2024/04/17 10:49:16;;;;;;;60.90;5.73;;;;;;;;;;5358693;26;20878;-67
2024/04/17 10:51:46;;;;;;;58.23;5.67;;;;;;;;;;5358555;26;20471;-67
2024/04/17 10:54:15;;;;;;;58.80;5.80;;;;;;;;;;5358382;26;20595;-67
2024/04/17 10:56:43;;;;;;;58.90;5.60;;;;;;;;;;5358265;26;21042;-67
2024/04/17 10:59:10;;;;;;;61.37;6.03;;;;;;;;;;5358524;26;20575;-67
2024/04/17 11:01:39;;;;;;;61.43;6.00;;;;;;;;;;5359357;26;20883;-68
2024/04/17 11:04:05;;;;;;;59.00;5.87;;;;;;;;;;5359998;26;20487;-68
2024/04/17 11:06:34;;;;;;;63.53;5.43;;;;;;;;;;5359210;26;20483;-68
2024/04/17 11:09:04;;;;;;;62.80;6.70;;;;;;;;;;5357266;26;20487;-68
2024/04/17 11:11:35;;;;;;;60.30;5.10;;;;;;;;;;5356130;26;20491;-69
2024/04/17 11:14:01;;;;;;;60.90;5.33;;;;;;;;;;5356231;26;20488;-69
2024/04/17 11:16:30;;;;;;;63.23;5.30;;;;;;;;;;5354948;26;20491;-69
2024/04/17 11:18:56;;;;;;;60.40;5.17;;;;;;;;;;5341265;26;20535;-68
2024/04/17 11:21:26;;;;;;;62.77;5.57;;;;;;;;;;5354685;26;20544;-69
2024/04/17 11:23:52;;;;;;;58.20;4.47;;;;;;;;;;5353714;26;20468;-69
2024/04/17 11:26:21;;;;;;;59.37;4.73;;;;;;;;;;5353024;26;20523;-68
2024/04/17 11:28:50;;;;;;;58.53;4.50;;;;;;;;;;5354728;26;20480;-70
2024/04/17 11:31:19;;;;;;;79.47;5.20;;;;;;;;;;5353117;26;20472;-68
2024/04/17 11:33:45;;;;;;;58.47;4.53;;;;;;;;;;5352290;26;20528;-68
2024/04/17 11:36:15;;;;;;;59.47;4.77;;;;;;;;;;5352163;26;20467;-69
2024/04/17 11:38:42;;;;;;;57.03;4.20;;;;;;;;;;5353280;26;21058;-68
2024/04/17 11:41:10;;;;;;;58.07;4.37;;;;;;;;;;5353271;26;20530;-69
2024/04/17 11:43:37;;;;;;;60.47;4.37;;;;;;;;;;5353894;26;20472;-69
2024/04/17 11:46:09;;;;;;;58.47;4.27;;;;;;;;;;5353224;26;20571;-68
2024/04/17 11:48:36;;;;;;;57.20;4.27;;;;;;;;;;5353788;26;20522;-69
2024/04/17 11:51:04;;;;;;;59.27;4.97;;;;;;;;;;5352637;26;20552;-69
2024/04/17 11:53:31;;;;;;;58.37;4.30;;;;;;;;;;5350797;26;20471;-68
2024/04/17 11:55:59;;;;;;;62.00;4.77;;;;;;;;;;5351725;26;21030;-69
2024/04/17 11:58:26;;;;;;;59.17;4.17;;;;;;;;;;5350916;26;20475;-70
2024/04/17 12:00:54;;;;;;;58.30;4.17;;;;;;;;;;5351772;26;20539;-69
2024/04/17 12:03:30;;;;;;;57.10;3.90;;;;;;;;;;5351447;26;20468;-70
2024/04/17 12:05:57;;;;;;;63.60;5.10;;;;;;;;;;5349924;26;20635;-68
2024/04/17 12:08:27;;;;;;;62.40;5.40;;;;;;;;;;5352417;26;20483;-68
2024/04/17 12:10:53;;;;;;;60.13;4.80;;;;;;;;;;5352661;26;20472;-69
2024/04/17 12:13:22;;;;;;;57.43;3.67;;;;;;;;;;5352938;26;20491;-68
2024/04/17 12:15:48;;;;;;;60.67;4.87;;;;;;;;;;5352630;26;20576;-68
2024/04/17 12:18:16;;;;;;;63.30;4.40;;;;;;;;;;5351691;26;20476;-68
2024/04/17 12:20:45;;;;;;;61.23;4.67;;;;;;;;;;5351223;26;20472;-69
2024/04/17 12:23:18;;;;;;;60.57;4.27;;;;;;;;;;5351926;26;20468;-68
2024/04/17 12:28:32;;;;;;;59.43;4.80;;;;;;;;;;5354072;26;20507;-69
2024/04/17 12:31:01;;;;;;;56.67;4.33;;;;;;;;;;5351152;26;20502;-68
2024/04/17 12:33:30;;;;;;;59.60;5.00;;;;;;;;;;5351507;26;20586;-68
2024/04/17 12:36:01;;;;;;;58.40;3.93;;;;;;;;;;5350472;26;20471;-68
2024/04/17 12:38:30;;;;;;;57.47;3.60;;;;;;;;;;5350776;26;21038;-68
2024/04/17 12:40:59;;;;;;;60.87;3.67;;;;;;;;;;5350703;26;20476;-68
2024/04/17 12:43:28;;;;;;;58.50;3.60;;;;;;;;;;5351354;26;20483;-69
2024/04/17 12:45:56;;;;;;;57.00;3.50;;;;;;;;;;5349594;26;20495;-68
2024/04/17 12:48:25;;;;;;;62.10;3.37;;;;;;;;;;5350110;26;20487;-68
2024/04/17 12:50:54;;;;;;;59.20;3.40;;;;;;;;;;5350950;26;20491;-70
2024/04/17 12:53:25;;;;;;;56.03;2.70;;;;;;;;;;5351111;26;20634;-68
2024/04/17 12:55:54;;;;;;;56.60;3.30;;;;;;;;;;5349470;26;20483;-69
2024/04/17 12:58:21;;;;;;;57.67;3.40;;;;;;;;;;5351367;26;20475;-68
2024/04/17 13:00:50;;;;;;;60.00;3.40;;;;;;;;;;5350688;26;20491;-70
2024/04/17 13:03:16;;;;;;;57.90;3.27;;;;;;;;;;5350647;26;20476;-69
2024/04/17 13:05:45;;;;;;;60.50;3.00;;;;;;;;;;5352839;26;20526;-69
2024/04/17 13:08:11;;;;;;;56.33;2.87;;;;;;;;;;5352235;26;20491;-68
2024/04/17 13:10:43;;;;;;;56.87;2.90;;;;;;;;;;5352016;26;20531;-69
2024/04/17 13:13:09;;;;;;;56.43;2.77;;;;;;;;;;5352236;26;20488;-68
2024/04/17 13:15:38;;;;;;;56.27;2.13;;;;;;;;;;5351893;26;20535;-69
2024/04/17 13:18:04;;;;;;;56.10;2.50;;;;;;;;;;5351999;26;20531;-70
2024/04/17 13:20:33;;;;;;;56.87;2.50;;;;;;;;;;5351122;26;20914;-69
2024/04/17 13:22:59;;;;;;;58.10;2.70;;;;;;;;;;5351086;26;20470;-69
2024/04/17 13:25:27;;;;;;;57.13;2.80;;;;;;;;;;5351029;26;20482;-69
2024/04/17 13:27:56;;;;;;;62.73;3.03;;;;;;;;;;5349959;26;20478;-70
2024/04/17 13:30:25;;;;;;;59.37;3.30;;;;;;;;;;5351293;26;20468;-69
2024/04/17 13:32:51;;;;;;;57.80;2.90;;;;;;;;;;5349489;26;20485;-70
2024/04/17 13:35:20;;;;;;;56.23;2.50;;;;;;;;;;5351158;26;20477;-69
2024/04/17 13:37:46;;;;;;;58.00;2.60;;;;;;;;;;5348842;26;20475;-69
2024/04/17 13:40:15;;;;;;;56.40;2.43;;;;;;;;;;5349285;26;20498;-69
2024/04/17 13:42:41;;;;;;;58.00;2.80;;;;;;;;;;5349740;26;20494;-69
2024/04/17 13:45:12;;;;;;;57.60;2.57;;;;;;;;;;5351365;26;20920;-69
2024/04/17 13:47:38;;;;;;;56.80;3.00;;;;;;;;;;5350102;26;20486;-69
2024/04/17 13:50:08;;;;;;;56.80;2.80;;;;;;;;;;5350976;26;20522;-69
2024/04/17 13:52:34;;;;;;;57.37;2.77;;;;;;;;;;5350341;26;20470;-68
2024/04/17 13:55:03;;;;;;;55.77;2.63;;;;;;;;;;5349924;26;20487;-68
2024/04/17 13:57:29;;;;;;;56.90;3.00;;;;;;;;;;5349497;26;20872;-69
2024/04/17 13:59:58;;;;;;;57.57;3.03;;;;;;;;;;5351843;26;21051;-69
2024/04/17 14:02:26;;;;;;;56.70;2.90;;;;;;;;;;5351923;26;20475;-69
2024/04/17 14:04:55;;;;;;;56.53;2.70;;;;;;;;;;5351813;26;20495;-69
2024/04/17 14:07:21;;;;;;;56.50;3.40;;;;;;;;;;5350758;26;20492;-69
2024/04/17 14:09:53;;;;;;;58.27;3.27;;;;;;;;;;5350960;26;20556;-68
2024/04/17 14:12:20;;;;;;;56.53;3.30;;;;;;;;;;5352936;26;20646;-69
2024/04/17 14:14:48;;;;;;;58.60;3.30;;;;;;;;;;5353465;26;20471;-69
2024/04/17 14:17:14;;;;;;;57.53;3.10;;;;;;;;;;5351188;26;20589;-70
2024/04/17 14:19:46;;;;;;;57.80;3.23;;;;;;;;;;5352408;26;20608;-69
2024/04/17 14:22:12;;;;;;;59.10;3.73;;;;;;;;;;5352004;26;20531;-69
2024/04/17 14:24:41;;;;;;;57.27;3.23;;;;;;;;;;5352910;26;20555;-69
2024/04/17 14:27:07;;;;;;;57.63;3.33;;;;;;;;;;5351859;26;20479;-68
2024/04/17 14:29:36;;;;;;;56.40;3.03;;;;;;;;;;5352661;26;20475;-69
2024/04/17 14:32:02;;;;;;;57.70;3.40;;;;;;;;;;5352397;26;20488;-69
2024/04/17 14:34:32;;;;;;;61.63;3.27;;;;;;;;;;5352360;26;20475;-69
2024/04/17 14:37:01;;;;;;;57.13;3.07;;;;;;;;;;5351219;26;20475;-69
2024/04/17 14:39:31;;;;;;;58.30;3.00;;;;;;;;;;5349549;26;21055;-69